createdAt,value
2023-10-14T00:00:38.625Z,16.22
2023-10-14T00:02:41.619Z,16.25
2023-10-14T00:04:47.226Z,16.22
2023-10-14T00:06:50.144Z,16.16
2023-10-14T00:09:03.864Z,16.07
2023-10-14T00:11:09.098Z,16.04
2023-10-14T00:13:12.122Z,16.04
2023-10-14T00:15:14.365Z,16.03
2023-10-14T00:17:20.544Z,16.01
2023-10-14T00:19:24.385Z,16.03
2023-10-14T00:21:28.487Z,15.97
2023-10-14T00:23:32.215Z,15.96
2023-10-14T00:25:35.668Z,15.95
2023-10-14T00:27:38.514Z,15.92
2023-10-14T00:29:40.483Z,15.91
2023-10-14T00:31:46.666Z,15.89
2023-10-14T00:33:49.288Z,15.83
2023-10-14T00:35:56.810Z,15.58
2023-10-14T00:38:09.604Z,15.21
2023-10-14T00:40:24.081Z,14.94
2023-10-14T00:42:26.000Z,14.71
2023-10-14T00:44:27.937Z,14.63
2023-10-14T00:46:33.412Z,14.71
2023-10-14T00:48:41.592Z,14.78
2023-10-14T00:50:43.545Z,14.77
2023-10-14T00:52:45.753Z,14.67
2023-10-14T00:55:00.325Z,14.72
2023-10-14T00:57:21.568Z,14.77
2023-10-14T00:59:24.303Z,14.60
2023-10-14T01:01:32.435Z,14.62
2023-10-14T01:03:36.249Z,14.70
2023-10-14T01:05:37.973Z,14.36
2023-10-14T01:07:41.184Z,14.26
2023-10-14T01:09:46.556Z,14.38
2023-10-14T01:11:48.485Z,14.53
2023-10-14T01:13:52.543Z,14.66
2023-10-14T01:16:10.238Z,14.79
2023-10-14T01:18:16.207Z,14.91
2023-10-14T01:20:19.087Z,15.01
2023-10-14T01:22:21.357Z,15.10
2023-10-14T01:24:23.578Z,15.13
2023-10-14T01:26:29.058Z,15.17
2023-10-14T01:28:31.713Z,15.23
2023-10-14T01:30:40.190Z,15.27
2023-10-14T01:32:51.229Z,15.28
2023-10-14T01:35:00.969Z,15.24
2023-10-14T01:37:14.398Z,15.26
2023-10-14T01:39:23.486Z,15.28
2023-10-14T01:41:26.642Z,15.30
2023-10-14T01:43:32.268Z,15.28
2023-10-14T01:45:41.473Z,15.31
2023-10-14T01:47:49.421Z,15.34
2023-10-14T01:49:53.352Z,15.32
2023-10-14T01:51:57.947Z,15.31
2023-10-14T01:54:00.326Z,15.30
2023-10-14T01:56:03.313Z,15.29
2023-10-14T01:58:10.156Z,15.24
2023-10-14T02:00:37.733Z,15.23
2023-10-14T02:02:41.158Z,15.25
2023-10-14T02:04:47.277Z,15.23
2023-10-14T02:07:04.454Z,15.25
2023-10-14T02:09:06.794Z,15.27
2023-10-14T02:11:09.586Z,15.29
2023-10-14T02:13:13.810Z,15.29
2023-10-14T02:15:16.141Z,15.28
2023-10-14T02:17:18.473Z,15.27
2023-10-14T02:19:23.706Z,15.30
2023-10-14T02:21:29.230Z,15.31
2023-10-14T02:23:46.213Z,15.31
2023-10-14T02:25:57.387Z,15.24
2023-10-14T02:27:59.644Z,15.20
2023-10-14T02:30:02.054Z,15.11
2023-10-14T02:32:04.533Z,15.11
2023-10-14T02:34:09.893Z,15.09
2023-10-14T02:36:17.904Z,15.08
2023-10-14T02:38:19.710Z,15.01
2023-10-14T02:40:26.955Z,14.92
2023-10-14T02:42:28.807Z,14.78
2023-10-14T02:44:35.330Z,14.76
2023-10-14T02:46:45.337Z,14.68
2023-10-14T02:48:54.626Z,14.67
2023-10-14T02:50:58.326Z,14.72
2023-10-14T02:53:08.278Z,14.78
2023-10-14T02:55:24.206Z,14.83
2023-10-14T02:57:28.136Z,14.80
2023-10-14T02:59:43.523Z,14.79
2023-10-14T03:01:46.285Z,14.79
2023-10-14T03:03:48.685Z,14.74
2023-10-14T03:05:53.760Z,14.71
2023-10-14T03:07:55.788Z,14.69
2023-10-14T03:10:19.903Z,14.70
2023-10-14T03:12:24.838Z,14.71
2023-10-14T03:14:26.606Z,14.70
2023-10-14T03:16:29.537Z,14.66
2023-10-14T03:18:42.786Z,14.61
2023-10-14T03:21:07.648Z,14.58
2023-10-14T03:23:15.018Z,14.52
2023-10-14T03:25:25.063Z,14.52
2023-10-14T03:27:26.907Z,14.56
2023-10-14T03:29:30.247Z,14.56
2023-10-14T03:31:37.550Z,14.58
2023-10-14T03:33:45.498Z,14.59
2023-10-14T03:36:10.261Z,14.63
2023-10-14T03:38:27.492Z,14.58
2023-10-14T03:40:35.326Z,14.54
2023-10-14T03:42:37.100Z,14.47
2023-10-14T03:44:43.233Z,14.41
2023-10-14T03:46:45.279Z,14.42
2023-10-14T03:48:48.433Z,14.48
2023-10-14T03:50:51.716Z,14.53
2023-10-14T03:52:57.196Z,14.57
2023-10-14T03:54:59.142Z,14.57
2023-10-14T03:57:04.534Z,14.64
2023-10-14T03:59:07.857Z,14.63
2023-10-14T04:01:09.819Z,14.63
2023-10-14T04:03:15.442Z,14.58
2023-10-14T04:05:20.430Z,14.56
2023-10-14T04:07:29.896Z,14.52
2023-10-14T04:09:39.672Z,14.54
2023-10-14T04:11:41.937Z,14.53
2023-10-14T04:14:00.387Z,14.49
2023-10-14T04:16:02.231Z,14.41
2023-10-14T04:18:13.681Z,14.36
2023-10-14T04:20:38.252Z,14.34
2023-10-14T04:22:42.896Z,14.34
2023-10-14T04:24:47.680Z,14.38
2023-10-14T04:26:51.002Z,14.39
2023-10-14T04:28:55.951Z,14.44
2023-10-14T04:31:02.399Z,14.44
2023-10-14T04:33:04.527Z,14.41
2023-10-14T04:35:06.987Z,14.37
2023-10-14T04:37:09.800Z,14.33
2023-10-14T04:39:15.889Z,14.30
2023-10-14T04:41:25.765Z,14.25
2023-10-14T04:43:27.530Z,14.15
2023-10-14T04:45:33.357Z,14.13
2023-10-14T04:47:38.355Z,14.09
2023-10-14T04:49:43.402Z,14.05
2023-10-14T04:51:48.337Z,14.05
2023-10-14T04:53:53.589Z,14.08
2023-10-14T04:55:56.106Z,14.08
2023-10-14T04:58:08.915Z,14.07
2023-10-14T05:00:21.340Z,14.06
2023-10-14T05:02:24.833Z,14.15
2023-10-14T05:04:32.654Z,14.16
2023-10-14T05:06:43.193Z,14.22
2023-10-14T05:08:46.955Z,14.25
2023-10-14T05:10:54.146Z,14.27
2023-10-14T05:12:56.804Z,14.30
2023-10-14T05:14:58.766Z,14.38
2023-10-14T05:17:06.456Z,14.45
2023-10-14T05:19:12.888Z,14.50
2023-10-14T05:21:35.292Z,14.56
2023-10-14T05:23:39.882Z,14.59
2023-10-14T05:25:45.556Z,14.64
2023-10-14T05:27:47.834Z,14.70
2023-10-14T05:29:53.746Z,14.76
2023-10-14T05:32:11.586Z,14.80
2023-10-14T05:34:15.037Z,14.86
2023-10-14T05:36:16.877Z,14.88
2023-10-14T05:38:20.677Z,14.94
2023-10-14T05:40:23.327Z,15.02
2023-10-14T05:42:28.341Z,15.04
2023-10-14T05:44:30.338Z,15.14
2023-10-14T05:46:32.262Z,15.18
2023-10-14T05:48:35.087Z,15.26
2023-10-14T05:50:36.903Z,15.34
2023-10-14T05:52:39.701Z,15.43
2023-10-14T05:54:47.157Z,15.45
2023-10-14T05:56:52.723Z,15.51
2023-10-14T05:58:55.186Z,15.59
2023-10-14T06:00:58.193Z,15.66
2023-10-14T06:03:00.936Z,15.71
2023-10-14T06:05:03.514Z,15.81
2023-10-14T06:07:05.556Z,15.83
2023-10-14T06:09:09.687Z,15.88
2023-10-14T06:11:13.939Z,15.92
2023-10-14T06:13:16.365Z,15.99
2023-10-14T06:15:20.704Z,16.00
2023-10-14T06:17:23.151Z,16.06
2023-10-14T06:19:25.942Z,16.15
2023-10-14T06:21:28.994Z,16.24
2023-10-14T06:23:31.149Z,16.21
2023-10-14T06:25:34.023Z,16.04
2023-10-14T06:27:35.909Z,16.06
2023-10-14T06:29:38.476Z,15.93
2023-10-14T06:31:41.879Z,15.77
2023-10-14T06:33:45.223Z,15.83
2023-10-14T06:35:55.600Z,15.93
2023-10-14T06:38:00.203Z,16.04
2023-10-14T06:40:03.993Z,16.19
2023-10-14T06:42:06.474Z,16.29
2023-10-14T06:44:10.530Z,16.21
2023-10-14T06:46:18.218Z,16.29
2023-10-14T06:48:22.595Z,16.45
2023-10-14T06:50:28.184Z,16.61
2023-10-14T06:52:31.691Z,16.78
2023-10-14T06:54:37.449Z,16.91
2023-10-14T06:56:41.549Z,17.02
2023-10-14T06:58:46.013Z,17.03
2023-10-14T07:00:49.819Z,17.14
2023-10-14T07:02:51.590Z,17.25
2023-10-14T07:04:53.578Z,16.96
2023-10-14T07:07:00.279Z,16.83
2023-10-14T07:09:11.464Z,16.66
2023-10-14T07:11:13.284Z,16.55
2023-10-14T07:13:15.425Z,16.66
2023-10-14T07:15:17.517Z,16.68
2023-10-14T07:17:24.254Z,16.78
2023-10-14T07:19:27.185Z,16.81
2023-10-14T07:21:30.558Z,17.01
2023-10-14T07:23:38.015Z,17.12
2023-10-14T07:25:44.330Z,17.32
2023-10-14T07:27:52.861Z,17.54
2023-10-14T07:29:55.377Z,17.67
2023-10-14T07:31:57.441Z,17.51
2023-10-14T07:34:10.338Z,17.50
2023-10-14T07:36:13.303Z,17.60
2023-10-14T07:38:16.448Z,17.73
2023-10-14T07:40:25.628Z,17.90
2023-10-14T07:42:28.344Z,18.08
2023-10-14T07:44:30.125Z,18.23
2023-10-14T07:46:32.103Z,18.28
2023-10-14T07:48:34.047Z,18.38
2023-10-14T07:50:40.239Z,18.44
2023-10-14T07:52:43.989Z,18.51
2023-10-14T07:54:47.564Z,18.64
2023-10-14T07:56:49.599Z,18.77
2023-10-14T07:58:55.392Z,18.73
2023-10-14T08:00:58.114Z,18.59
2023-10-14T08:03:07.624Z,18.49
2023-10-14T08:05:10.702Z,18.58
2023-10-14T08:07:13.042Z,18.54
2023-10-14T08:09:29.231Z,18.59
2023-10-14T08:11:37.924Z,18.81
2023-10-14T08:13:41.904Z,19.00
2023-10-14T08:15:44.126Z,19.23
2023-10-14T08:17:47.271Z,19.20
2023-10-14T08:19:49.312Z,19.29
2023-10-14T08:21:54.896Z,19.50
2023-10-14T08:23:59.520Z,19.73
2023-10-14T08:26:04.800Z,19.82
2023-10-14T08:28:07.684Z,19.98
2023-10-14T08:30:12.939Z,20.11
2023-10-14T08:32:15.878Z,20.21
2023-10-14T08:34:17.702Z,20.35
2023-10-14T08:36:19.745Z,20.49
2023-10-14T08:38:23.844Z,20.60
2023-10-14T08:40:28.081Z,20.68
2023-10-14T08:42:30.646Z,20.81
2023-10-14T08:44:33.187Z,20.87
2023-10-14T08:46:37.321Z,20.74
2023-10-14T08:48:40.202Z,20.50
2023-10-14T08:50:43.007Z,20.39
2023-10-14T08:52:46.806Z,20.56
2023-10-14T08:54:50.636Z,20.72
2023-10-14T08:56:52.901Z,20.84
2023-10-14T08:58:56.149Z,21.06
2023-10-14T09:00:59.481Z,21.24
2023-10-14T09:03:03.457Z,21.42
2023-10-14T09:05:05.820Z,21.15
2023-10-14T09:07:14.911Z,21.03
2023-10-14T09:09:19.141Z,21.08
2023-10-14T09:11:29.303Z,21.15
2023-10-14T09:13:35.388Z,21.33
2023-10-14T09:15:41.996Z,21.26
2023-10-14T09:17:44.617Z,21.15
2023-10-14T09:19:50.715Z,20.98
2023-10-14T09:21:59.012Z,20.92
2023-10-14T09:24:09.926Z,21.02
2023-10-14T09:26:14.375Z,20.99
2023-10-14T09:28:18.933Z,21.10
2023-10-14T09:30:21.473Z,21.39
2023-10-14T09:32:23.313Z,21.53
2023-10-14T09:34:25.782Z,21.33
2023-10-14T09:36:27.986Z,21.53
2023-10-14T09:38:33.743Z,21.72
2023-10-14T09:40:36.969Z,21.86
2023-10-14T09:42:39.303Z,22.13
2023-10-14T09:44:46.978Z,22.42
2023-10-14T09:46:49.640Z,22.65
2023-10-14T09:48:52.536Z,22.82
2023-10-14T09:51:02.342Z,22.96
2023-10-14T09:53:09.890Z,23.03
2023-10-14T09:55:16.263Z,23.19
2023-10-14T09:57:18.899Z,23.28
2023-10-14T09:59:22.785Z,23.43
2023-10-14T10:01:26.875Z,23.46
2023-10-14T10:03:33.532Z,23.10
2023-10-14T10:05:40.996Z,22.60
2023-10-14T10:08:20.225Z,22.38
2023-10-14T10:10:40.161Z,22.33
2023-10-14T10:12:43.075Z,22.42
2023-10-14T10:14:45.383Z,22.67
2023-10-14T10:16:50.709Z,22.70
2023-10-14T10:19:00.892Z,22.67
2023-10-14T10:21:03.446Z,22.70
2023-10-14T10:23:08.286Z,22.58
2023-10-14T10:25:12.987Z,22.93
2023-10-14T10:27:18.504Z,23.30
2023-10-14T10:29:24.001Z,23.55
2023-10-14T10:31:26.350Z,23.67
2023-10-14T10:33:53.900Z,23.86
2023-10-14T10:36:04.801Z,23.91
2023-10-14T10:38:12.060Z,24.08
2023-10-14T10:40:18.465Z,24.24
2023-10-14T10:42:21.562Z,23.98
2023-10-14T10:44:26.110Z,24.02
2023-10-14T10:46:42.960Z,24.19
2023-10-14T10:48:47.205Z,24.20
2023-10-14T10:50:52.751Z,23.88
2023-10-14T10:53:10.219Z,23.65
2023-10-14T10:55:12.405Z,23.66
2023-10-14T10:57:14.589Z,23.71
2023-10-14T10:59:17.234Z,23.85
2023-10-14T11:01:21.169Z,23.90
2023-10-14T11:03:24.847Z,23.83
2023-10-14T11:05:29.480Z,23.92
2023-10-14T11:07:33.942Z,23.83
2023-10-14T11:09:41.031Z,23.83
2023-10-14T11:11:43.049Z,24.02
2023-10-14T11:13:45.011Z,24.15
2023-10-14T11:15:50.212Z,24.37
2023-10-14T11:17:58.892Z,24.56
2023-10-14T11:20:01.149Z,24.77
2023-10-14T11:22:05.670Z,24.87
2023-10-14T11:24:10.364Z,24.68
2023-10-14T11:26:19.852Z,24.57
2023-10-14T11:28:27.899Z,24.70
2023-10-14T11:30:32.689Z,24.89
2023-10-14T11:32:35.676Z,25.03
2023-10-14T11:34:37.973Z,25.07
2023-10-14T11:36:45.336Z,24.70
2023-10-14T11:38:50.402Z,24.55
2023-10-14T11:40:54.022Z,24.52
2023-10-14T11:42:57.465Z,24.37
2023-10-14T11:44:59.441Z,24.49
2023-10-14T11:47:08.615Z,24.52
2023-10-14T11:49:15.399Z,24.43
2023-10-14T11:51:21.531Z,24.30
2023-10-14T11:53:32.723Z,24.37
2023-10-14T11:55:34.785Z,24.25
2023-10-14T11:57:36.640Z,24.35
2023-10-14T11:59:43.847Z,24.50
2023-10-14T12:01:47.259Z,24.57
2023-10-14T12:03:50.772Z,24.62
2023-10-14T12:06:00.442Z,24.63
2023-10-14T12:08:02.866Z,24.72
2023-10-14T12:10:07.595Z,24.66
2023-10-14T12:12:09.947Z,24.71
2023-10-14T12:14:16.927Z,24.78
2023-10-14T12:16:19.833Z,24.80
2023-10-14T12:18:22.256Z,24.93
2023-10-14T12:20:26.035Z,25.06
2023-10-14T12:22:27.948Z,25.17
2023-10-14T12:24:29.852Z,25.24
2023-10-14T12:26:38.886Z,25.11
2023-10-14T12:28:42.526Z,24.91
2023-10-14T12:30:47.908Z,24.77
2023-10-14T12:32:50.561Z,24.58
2023-10-14T12:34:54.278Z,24.67
2023-10-14T12:36:56.233Z,24.76
2023-10-14T12:38:58.086Z,24.90
2023-10-14T12:41:03.785Z,24.68
2023-10-14T12:43:07.049Z,24.65
2023-10-14T12:45:14.531Z,24.57
2023-10-14T12:47:16.718Z,24.59
2023-10-14T12:49:24.399Z,24.59
2023-10-14T12:51:34.839Z,24.43
2023-10-14T12:53:37.573Z,24.40
2023-10-14T12:55:43.355Z,24.61
2023-10-14T12:57:46.803Z,24.78
2023-10-14T12:59:49.138Z,24.92
2023-10-14T13:02:00.826Z,25.04
2023-10-14T13:04:07.190Z,25.13
2023-10-14T13:06:10.334Z,25.17
2023-10-14T13:08:12.238Z,25.22
2023-10-14T13:10:19.883Z,25.26
2023-10-14T13:12:21.804Z,25.27
2023-10-14T13:14:30.313Z,25.26
2023-10-14T13:16:33.122Z,25.28
2023-10-14T13:18:35.158Z,25.31
2023-10-14T13:20:38.425Z,25.29
2023-10-14T13:22:41.193Z,25.25
2023-10-14T13:24:51.680Z,25.22
2023-10-14T13:26:53.656Z,25.18
2023-10-14T13:28:56.915Z,25.19
2023-10-14T13:31:00.115Z,25.21
2023-10-14T13:33:02.336Z,25.23
2023-10-14T13:35:06.957Z,25.18
2023-10-14T13:37:10.619Z,25.21
2023-10-14T13:39:19.274Z,25.21
2023-10-14T13:41:25.735Z,25.13
2023-10-14T13:43:28.024Z,25.10
2023-10-14T13:45:29.871Z,25.08
2023-10-14T13:47:33.101Z,25.13
2023-10-14T13:49:35.910Z,25.21
2023-10-14T13:51:37.880Z,25.25
2023-10-14T13:53:46.200Z,25.28
2023-10-14T13:55:54.938Z,25.31
2023-10-14T13:57:58.594Z,25.33
2023-10-14T14:00:01.071Z,25.37
2023-10-14T14:02:04.766Z,25.41
2023-10-14T14:04:10.006Z,25.44
2023-10-14T14:06:12.198Z,25.49
2023-10-14T14:08:15.091Z,25.52
2023-10-14T14:10:18.016Z,25.51
2023-10-14T14:12:21.400Z,25.54
2023-10-14T14:14:26.815Z,25.57
2023-10-14T14:16:28.942Z,25.57
2023-10-14T14:18:31.002Z,25.56
2023-10-14T14:20:33.703Z,25.56
2023-10-14T14:22:37.595Z,25.58
2023-10-14T14:24:39.439Z,25.59
2023-10-14T14:26:41.385Z,25.60
2023-10-14T14:28:44.138Z,25.63
2023-10-14T14:30:51.283Z,25.64
2023-10-14T14:32:55.159Z,25.64
2023-10-14T14:34:57.005Z,25.65
2023-10-14T14:36:59.224Z,25.63
2023-10-14T14:39:03.322Z,25.65
2023-10-14T14:41:05.411Z,25.66
2023-10-14T14:43:07.307Z,25.64
2023-10-14T14:45:29.667Z,25.64
2023-10-14T14:47:31.621Z,25.60
2023-10-14T14:49:34.093Z,25.59
2023-10-14T14:51:35.957Z,25.58
2023-10-14T14:53:38.239Z,25.58
2023-10-14T14:55:44.413Z,25.59
2023-10-14T14:57:51.316Z,25.56
2023-10-14T14:59:58.248Z,25.51
2023-10-14T15:02:03.641Z,25.49
2023-10-14T15:04:08.422Z,25.45
2023-10-14T15:06:10.144Z,25.40
2023-10-14T15:08:14.334Z,25.35
2023-10-14T15:10:16.425Z,25.26
2023-10-14T15:12:18.267Z,25.20
2023-10-14T15:14:20.117Z,25.12
2023-10-14T15:16:37.331Z,25.03
2023-10-14T15:18:45.085Z,24.92
2023-10-14T15:20:47.172Z,24.82
2023-10-14T15:22:50.494Z,24.71
2023-10-14T15:24:55.354Z,24.57
2023-10-14T15:26:57.452Z,24.40
2023-10-14T15:28:59.323Z,24.25
2023-10-14T15:31:02.782Z,24.12
2023-10-14T15:33:08.471Z,24.00
2023-10-14T15:35:17.768Z,23.83
2023-10-14T15:37:20.026Z,23.68
2023-10-14T15:39:38.658Z,23.58
2023-10-14T15:41:40.677Z,23.46
2023-10-14T15:43:42.910Z,23.37
2023-10-14T15:45:46.246Z,23.27
2023-10-14T15:47:48.862Z,23.18
2023-10-14T15:49:52.261Z,23.08
2023-10-14T15:51:54.682Z,22.94
2023-10-14T15:54:02.133Z,22.83
2023-10-14T15:56:04.419Z,22.72
2023-10-14T15:58:07.718Z,22.63
2023-10-14T16:00:16.236Z,22.53
2023-10-14T16:02:18.109Z,22.43
2023-10-14T16:04:21.149Z,22.37
2023-10-14T16:06:24.895Z,22.31
2023-10-14T16:08:26.633Z,22.25
2023-10-14T16:10:30.193Z,22.17
2023-10-14T16:12:34.438Z,22.11
2023-10-14T16:14:36.439Z,22.02
2023-10-14T16:16:38.354Z,21.96
2023-10-14T16:18:40.263Z,21.92
2023-10-14T16:20:47.675Z,21.89
2023-10-14T16:22:51.318Z,21.82
2023-10-14T16:24:55.342Z,21.73
2023-10-14T16:26:57.179Z,21.67
2023-10-14T16:29:04.562Z,21.61
2023-10-14T16:31:14.167Z,21.57
2023-10-14T16:33:16.493Z,21.57
2023-10-14T16:35:20.404Z,21.54
2023-10-14T16:37:22.218Z,21.52
2023-10-14T16:39:24.157Z,21.46
2023-10-14T16:41:26.600Z,21.43
2023-10-14T16:43:28.605Z,21.39
2023-10-14T16:45:32.580Z,21.39
2023-10-14T16:47:34.423Z,21.36
2023-10-14T16:49:36.365Z,21.36
2023-10-14T16:51:39.055Z,21.34
2023-10-14T16:53:43.814Z,21.33
2023-10-14T16:55:47.408Z,21.31
2023-10-14T16:57:50.567Z,21.30
2023-10-14T16:59:52.473Z,21.26
2023-10-14T17:01:54.518Z,21.22
2023-10-14T17:04:01.000Z,21.20
2023-10-14T17:06:04.554Z,21.20
2023-10-14T17:08:09.554Z,21.11
2023-10-14T17:10:15.973Z,21.08
2023-10-14T17:12:20.861Z,21.07
2023-10-14T17:14:22.839Z,21.04
2023-10-14T17:16:24.995Z,21.02
2023-10-14T17:18:27.262Z,21.05
2023-10-14T17:20:31.538Z,21.05
2023-10-14T17:22:35.907Z,21.06
2023-10-14T17:24:38.970Z,21.05
2023-10-14T17:26:41.346Z,21.00
2023-10-14T17:28:44.756Z,20.93
2023-10-14T17:30:46.565Z,20.83
2023-10-14T17:32:48.805Z,20.67
2023-10-14T17:34:50.562Z,20.38
2023-10-14T17:36:52.509Z,20.35
2023-10-14T17:38:56.168Z,20.24
2023-10-14T17:40:57.718Z,20.27
2023-10-14T17:43:05.992Z,20.30
2023-10-14T17:45:09.957Z,20.11
2023-10-14T17:47:12.368Z,19.97
2023-10-14T17:49:15.454Z,19.85
2023-10-14T17:51:17.624Z,19.74
2023-10-14T17:53:20.987Z,19.80
2023-10-14T17:55:24.606Z,19.91
2023-10-14T17:57:26.303Z,19.99
2023-10-14T17:59:29.995Z,19.87
2023-10-14T18:01:32.472Z,19.75
2023-10-14T18:03:34.913Z,19.56
2023-10-14T18:05:46.797Z,19.57
2023-10-14T18:07:49.140Z,19.65
2023-10-14T18:09:51.045Z,19.75
2023-10-14T18:11:53.704Z,19.58
2023-10-14T18:13:56.392Z,19.48
2023-10-14T18:15:58.496Z,19.52
2023-10-14T18:18:00.909Z,19.54
2023-10-14T18:20:04.058Z,19.56
2023-10-14T18:22:06.648Z,19.64
2023-10-14T18:24:11.772Z,19.70
2023-10-14T18:26:15.347Z,19.78
2023-10-14T18:28:17.241Z,19.78
2023-10-14T18:30:22.159Z,19.80
2023-10-14T18:32:24.200Z,19.80
2023-10-14T18:34:25.990Z,19.81
2023-10-14T18:36:29.813Z,19.74
2023-10-14T18:38:31.975Z,19.73
2023-10-14T18:40:34.156Z,19.71
2023-10-14T18:42:37.759Z,19.56
2023-10-14T18:44:40.356Z,19.53
2023-10-14T18:46:43.009Z,19.59
2023-10-14T18:48:47.015Z,19.66
2023-10-14T18:50:50.085Z,19.59
2023-10-14T18:52:53.293Z,19.55
2023-10-14T18:54:55.432Z,19.55
2023-10-14T18:56:57.252Z,19.55
2023-10-14T18:58:59.131Z,19.60
2023-10-14T19:01:01.254Z,19.63
2023-10-14T19:03:06.190Z,19.67
2023-10-14T19:05:09.766Z,19.68
2023-10-14T19:07:15.787Z,19.68
2023-10-14T19:09:23.169Z,19.71
2023-10-14T19:11:26.147Z,19.66
2023-10-14T19:13:29.930Z,19.61
2023-10-14T19:15:33.797Z,19.61
2023-10-14T19:17:36.938Z,19.60
2023-10-14T19:19:38.776Z,19.56
2023-10-14T19:21:40.791Z,19.51
2023-10-14T19:23:44.212Z,19.50
2023-10-14T19:25:49.892Z,19.42
2023-10-14T19:27:52.295Z,18.98
2023-10-14T19:29:54.358Z,19.01
2023-10-14T19:31:57.354Z,19.08
2023-10-14T19:33:59.728Z,19.12
2023-10-14T19:36:06.823Z,19.18
2023-10-14T19:38:09.648Z,19.19
2023-10-14T19:40:16.526Z,19.13
2023-10-14T19:42:18.567Z,19.11
2023-10-14T19:44:22.469Z,19.10
2023-10-14T19:46:25.305Z,19.12
2023-10-14T19:48:31.124Z,19.13
2023-10-14T19:50:34.045Z,19.14
2023-10-14T19:52:40.924Z,19.15
2023-10-14T19:54:43.116Z,19.12
2023-10-14T19:56:45.088Z,19.08
2023-10-14T19:58:46.914Z,19.01
2023-10-14T20:00:51.206Z,18.99
2023-10-14T20:03:03.262Z,18.92
2023-10-14T20:05:06.106Z,18.90
2023-10-14T20:07:09.454Z,18.87
2023-10-14T20:09:11.948Z,18.87
2023-10-14T20:11:15.006Z,18.85
2023-10-14T20:13:18.405Z,18.86
2023-10-14T20:15:21.938Z,18.85
2023-10-14T20:17:23.920Z,18.82
2023-10-14T20:19:25.850Z,18.80
2023-10-14T20:21:29.830Z,18.74
2023-10-14T20:23:37.048Z,18.73
2023-10-14T20:25:41.795Z,18.65
2023-10-14T20:27:43.631Z,18.63
2023-10-14T20:29:45.445Z,18.62
2023-10-14T20:31:47.694Z,18.57
2023-10-14T20:33:52.895Z,18.52
2023-10-14T20:35:56.940Z,18.50
2023-10-14T20:38:01.852Z,18.47
2023-10-14T20:40:06.422Z,18.45
2023-10-14T20:42:12.381Z,18.42
2023-10-14T20:44:15.846Z,18.38
2023-10-14T20:46:20.924Z,18.33
2023-10-14T20:48:22.688Z,17.94
2023-10-14T20:50:28.872Z,17.83
2023-10-14T20:52:32.508Z,17.64
2023-10-14T20:54:34.300Z,17.64
2023-10-14T20:56:37.911Z,17.70
2023-10-14T20:58:39.823Z,17.78
2023-10-14T21:00:41.779Z,17.86
2023-10-14T21:02:44.451Z,17.92
2023-10-14T21:04:47.358Z,17.95
2023-10-14T21:06:54.338Z,18.00
2023-10-14T21:08:58.018Z,17.99
2023-10-14T21:10:59.989Z,18.00
2023-10-14T21:13:02.295Z,18.04
2023-10-14T21:15:04.528Z,18.08
2023-10-14T21:17:06.530Z,18.05
2023-10-14T21:19:12.134Z,18.04
2023-10-14T21:21:17.205Z,18.05
2023-10-14T21:23:20.127Z,18.05
2023-10-14T21:25:23.277Z,18.03
2023-10-14T21:27:25.165Z,18.00
2023-10-14T21:29:27.135Z,17.82
2023-10-14T21:31:29.184Z,17.76
2023-10-14T21:33:32.869Z,17.74
2023-10-14T21:35:35.635Z,17.77
2023-10-14T21:37:39.652Z,17.70
2023-10-14T21:39:43.249Z,17.69
2023-10-14T21:41:45.579Z,17.69
2023-10-14T21:43:49.907Z,17.57
2023-10-14T21:45:52.558Z,17.48
2023-10-14T21:47:54.736Z,17.47
2023-10-14T21:49:58.142Z,17.48
2023-10-14T21:52:00.078Z,17.44
2023-10-14T21:54:01.900Z,17.43
2023-10-14T21:56:05.454Z,17.47
2023-10-14T21:58:08.929Z,17.35
2023-10-14T22:00:15.702Z,17.39
2023-10-14T22:02:17.620Z,17.44
2023-10-14T22:04:20.213Z,17.47
2023-10-14T22:06:23.453Z,17.38
2023-10-14T22:08:26.472Z,17.33
2023-10-14T22:10:31.100Z,17.33
2023-10-14T22:12:32.863Z,17.34
2023-10-14T22:14:37.941Z,17.39
2023-10-14T22:16:42.876Z,17.43
2023-10-14T22:18:52.287Z,17.44
2023-10-14T22:20:55.129Z,17.50
2023-10-14T22:22:58.236Z,17.51
2023-10-14T22:25:00.078Z,17.51
2023-10-14T22:27:06.168Z,17.52
2023-10-14T22:29:08.083Z,17.53
2023-10-14T22:31:11.905Z,17.51
2023-10-14T22:33:14.200Z,17.50
2023-10-14T22:35:20.949Z,17.48
2023-10-14T22:37:35.976Z,17.48
2023-10-14T22:39:39.654Z,17.49
2023-10-14T22:41:44.244Z,17.48
2023-10-14T22:43:46.244Z,17.46
2023-10-14T22:45:49.418Z,17.44
2023-10-14T22:47:54.100Z,17.41
2023-10-14T22:49:57.038Z,17.37
2023-10-14T22:51:58.858Z,17.37
2023-10-14T22:54:00.868Z,17.34
2023-10-14T22:56:07.463Z,17.34
2023-10-14T22:58:10.310Z,17.29
2023-10-14T23:00:13.647Z,17.32
2023-10-14T23:02:17.361Z,17.31
2023-10-14T23:04:19.393Z,17.25
2023-10-14T23:06:23.041Z,17.15
2023-10-14T23:08:24.875Z,17.07
2023-10-14T23:10:27.997Z,16.88
2023-10-14T23:12:30.317Z,16.57
2023-10-14T23:14:34.101Z,16.28
2023-10-14T23:16:38.859Z,16.04
2023-10-14T23:18:40.834Z,15.86
2023-10-14T23:20:43.542Z,15.86
2023-10-14T23:22:46.634Z,15.84
2023-10-14T23:24:49.625Z,15.96
2023-10-14T23:26:51.824Z,16.07
2023-10-14T23:28:55.072Z,16.21
2023-10-14T23:30:57.240Z,16.33
2023-10-14T23:33:01.898Z,16.40
2023-10-14T23:35:10.488Z,16.43
2023-10-14T23:37:12.411Z,16.46
2023-10-14T23:39:18.590Z,16.53
2023-10-14T23:41:20.420Z,16.60
2023-10-14T23:43:22.368Z,16.61
2023-10-14T23:45:28.989Z,16.63
2023-10-14T23:47:32.313Z,16.67
2023-10-14T23:49:35.548Z,16.69
2023-10-14T23:51:37.397Z,16.71
2023-10-14T23:53:39.817Z,16.72
2023-10-14T23:55:45.039Z,16.71
2023-10-14T23:57:47.238Z,16.72
2023-10-14T23:59:49.845Z,16.72
